createdAt,value
2023-01-10T00:00:26.369Z,99.90
2023-01-10T00:02:53.657Z,99.90
2023-01-10T00:05:20.897Z,99.90
2023-01-10T00:07:48.166Z,99.90
2023-01-10T00:10:15.580Z,99.90
2023-01-10T00:13:01.066Z,99.90
2023-01-10T00:15:28.195Z,99.90
2023-01-10T00:17:55.428Z,99.90
2023-01-10T00:20:22.639Z,99.90
2023-01-10T00:22:50.975Z,99.90
2023-01-10T00:25:21.283Z,99.90
2023-01-10T00:28:04.700Z,99.90
2023-01-10T00:30:33.772Z,99.90
2023-01-10T00:33:00.950Z,99.90
2023-01-10T00:35:28.146Z,99.90
2023-01-10T00:38:01.465Z,99.90
2023-01-10T00:40:28.685Z,99.90
2023-01-10T00:43:14.231Z,99.90
2023-01-10T00:45:41.409Z,99.90
2023-01-10T00:48:08.587Z,99.90
2023-01-10T00:50:35.761Z,99.90
2023-01-10T00:53:02.911Z,99.90
2023-01-10T00:55:30.651Z,99.90
2023-01-10T00:57:57.866Z,99.90
2023-01-10T01:00:25.120Z,99.90
2023-01-10T01:02:52.320Z,99.90
2023-01-10T01:05:19.515Z,99.90
2023-01-10T01:07:50.620Z,99.90
2023-01-10T01:10:26.692Z,99.90
2023-01-10T01:13:05.581Z,99.90
2023-01-10T01:15:33.197Z,99.90
2023-01-10T01:18:00.814Z,99.90
2023-01-10T01:20:27.983Z,99.90
2023-01-10T01:22:55.169Z,99.90
2023-01-10T01:25:22.337Z,99.90
2023-01-10T01:27:49.636Z,99.90
2023-01-10T01:30:16.896Z,99.90
2023-01-10T01:32:44.138Z,99.90
2023-01-10T01:35:13.859Z,99.90
2023-01-10T01:37:41.613Z,99.90
2023-01-10T01:40:15.619Z,99.90
2023-01-10T01:42:42.831Z,99.90
2023-01-10T01:45:10.021Z,99.90
2023-01-10T01:47:41.098Z,99.90
2023-01-10T01:50:16.386Z,99.90
2023-01-10T01:52:43.631Z,99.90
2023-01-10T01:55:11.390Z,99.90
2023-01-10T01:57:38.635Z,99.90
2023-01-10T02:00:06.102Z,99.90
2023-01-10T02:02:48.304Z,99.90
2023-01-10T02:05:25.073Z,99.90
2023-01-10T02:07:58.145Z,99.90
2023-01-10T02:10:28.340Z,99.90
2023-01-10T02:12:56.044Z,99.90
2023-01-10T02:15:23.238Z,99.90
2023-01-10T02:17:51.809Z,99.90
2023-01-10T02:20:20.113Z,99.90
2023-01-10T02:22:47.271Z,99.90
2023-01-10T02:25:29.829Z,99.90
2023-01-10T02:28:15.692Z,99.90
2023-01-10T02:30:48.813Z,99.90
2023-01-10T02:33:34.658Z,99.90
2023-01-10T02:36:21.200Z,99.90
2023-01-10T02:38:48.390Z,99.90
2023-01-10T02:41:18.685Z,99.90
2023-01-10T02:43:48.760Z,99.90
2023-01-10T02:46:18.128Z,99.90
2023-01-10T02:48:45.385Z,99.90
2023-01-10T02:51:18.149Z,99.90
2023-01-10T02:53:47.988Z,99.90
2023-01-10T02:56:25.121Z,99.90
2023-01-10T02:59:12.542Z,99.90
2023-01-10T03:01:39.768Z,99.90
2023-01-10T03:04:21.850Z,99.90
2023-01-10T03:06:54.943Z,99.90
2023-01-10T03:09:27.433Z,99.90
2023-01-10T03:12:03.669Z,99.90
2023-01-10T03:14:31.998Z,99.90
2023-01-10T03:17:00.510Z,99.90
2023-01-10T03:19:31.419Z,99.90
2023-01-10T03:21:59.738Z,99.90
2023-01-10T03:24:31.305Z,99.90
2023-01-10T03:27:19.206Z,99.90
2023-01-10T03:29:52.438Z,99.90
2023-01-10T03:32:21.194Z,99.90
2023-01-10T03:34:48.413Z,99.90
2023-01-10T03:37:30.560Z,99.90
2023-01-10T03:40:05.460Z,99.90
2023-01-10T03:43:03.247Z,99.90
2023-01-10T03:45:33.497Z,99.90
2023-01-10T03:48:02.970Z,99.90
2023-01-10T03:50:30.670Z,99.90
2023-01-10T03:52:58.204Z,99.90
2023-01-10T03:55:27.105Z,99.90
2023-01-10T03:57:54.499Z,99.90
2023-01-10T04:00:21.755Z,99.90
2023-01-10T04:02:48.900Z,99.90
2023-01-10T04:05:16.093Z,99.90
2023-01-10T04:07:43.315Z,99.90
2023-01-10T04:10:10.757Z,99.90
2023-01-10T04:12:37.960Z,99.90
2023-01-10T04:15:05.427Z,99.90
2023-01-10T04:17:32.581Z,99.90
2023-01-10T04:19:59.852Z,99.90
2023-01-10T04:22:27.248Z,99.90
2023-01-10T04:24:54.502Z,99.90
2023-01-10T04:27:21.697Z,99.90
2023-01-10T04:29:48.932Z,99.90
2023-01-10T04:32:16.145Z,99.90
2023-01-10T04:34:43.370Z,99.90
2023-01-10T04:37:10.527Z,99.90
2023-01-10T04:39:37.738Z,99.90
2023-01-10T04:42:04.995Z,99.90
2023-01-10T04:44:32.252Z,99.90
2023-01-10T04:46:59.465Z,99.90
2023-01-10T04:49:26.577Z,99.90
2023-01-10T04:51:53.756Z,99.90
2023-01-10T04:54:21.410Z,99.90
2023-01-10T04:56:48.915Z,99.90
2023-01-10T04:59:16.173Z,99.90
2023-01-10T05:01:43.470Z,99.90
2023-01-10T05:04:10.784Z,99.90
2023-01-10T05:06:40.219Z,99.90
2023-01-10T05:09:08.459Z,99.90
2023-01-10T05:11:35.638Z,99.90
2023-01-10T05:14:02.906Z,99.90
2023-01-10T05:16:30.308Z,99.90
2023-01-10T05:18:57.589Z,99.90
2023-01-10T05:21:24.892Z,99.90
2023-01-10T05:23:52.110Z,99.90
2023-01-10T05:26:20.437Z,99.90
2023-01-10T05:28:47.598Z,99.90
2023-01-10T05:31:15.814Z,99.90
2023-01-10T05:33:47.095Z,99.90
2023-01-10T05:36:14.371Z,99.90
2023-01-10T05:38:41.653Z,99.90
2023-01-10T05:41:08.862Z,99.90
2023-01-10T05:43:36.085Z,99.90
2023-01-10T05:46:03.708Z,99.90
2023-01-10T05:48:30.943Z,99.90
2023-01-10T05:50:58.234Z,99.90
2023-01-10T05:53:25.438Z,99.90
2023-01-10T05:56:00.017Z,99.90
2023-01-10T05:58:27.867Z,99.90
2023-01-10T06:00:55.777Z,99.90
2023-01-10T06:03:23.261Z,99.40
2023-01-10T06:05:50.474Z,99.00
2023-01-10T06:08:17.637Z,99.30
2023-01-10T06:10:44.862Z,99.90
2023-01-10T06:13:12.358Z,99.90
2023-01-10T06:15:40.023Z,99.90
2023-01-10T06:18:07.640Z,99.90
2023-01-10T06:20:35.108Z,99.90
2023-01-10T06:23:04.770Z,99.90
2023-01-10T06:25:32.588Z,99.90
2023-01-10T06:27:59.813Z,99.90
2023-01-10T06:30:26.940Z,99.90
2023-01-10T06:32:54.309Z,99.90
2023-01-10T06:35:21.509Z,99.90
2023-01-10T06:37:48.755Z,99.90
2023-01-10T06:40:16.137Z,99.90
2023-01-10T06:42:43.350Z,99.90
2023-01-10T06:45:10.916Z,99.90
2023-01-10T06:47:38.631Z,99.90
2023-01-10T06:50:06.124Z,99.90
2023-01-10T06:52:33.724Z,99.90
2023-01-10T06:55:01.030Z,99.90
2023-01-10T06:57:34.078Z,99.90
2023-01-10T07:00:04.991Z,99.90
2023-01-10T07:02:32.207Z,99.90
2023-01-10T07:04:59.430Z,99.90
2023-01-10T07:07:26.600Z,99.90
2023-01-10T07:09:53.796Z,99.90
2023-01-10T07:12:20.966Z,99.90
2023-01-10T07:14:48.113Z,99.90
2023-01-10T07:17:15.598Z,99.90
2023-01-10T07:19:42.785Z,99.90
2023-01-10T07:22:10.002Z,99.90
2023-01-10T07:24:37.178Z,99.90
2023-01-10T07:27:04.408Z,99.90
2023-01-10T07:29:31.584Z,99.90
2023-01-10T07:31:58.766Z,99.90
2023-01-10T07:34:26.134Z,99.90
2023-01-10T07:36:53.329Z,99.90
2023-01-10T07:39:20.548Z,99.90
2023-01-10T07:41:48.726Z,99.90
2023-01-10T07:44:16.696Z,99.90
2023-01-10T07:46:43.941Z,99.90
2023-01-10T07:49:11.175Z,99.90
2023-01-10T07:51:38.533Z,99.90
2023-01-10T07:54:06.240Z,99.90
2023-01-10T07:56:33.476Z,99.90
2023-01-10T07:59:01.477Z,99.90
2023-01-10T08:01:29.705Z,99.90
2023-01-10T08:03:58.368Z,99.90
2023-01-10T08:06:25.548Z,99.90
2023-01-10T08:08:52.798Z,99.90
2023-01-10T08:11:20.033Z,99.90
2023-01-10T08:13:47.239Z,99.90
2023-01-10T08:16:15.695Z,99.90
2023-01-10T08:18:43.540Z,99.90
2023-01-10T08:21:10.776Z,99.90
2023-01-10T08:23:37.990Z,99.90
2023-01-10T08:26:05.909Z,99.90
2023-01-10T08:28:33.216Z,99.90
2023-01-10T08:31:04.935Z,99.90
2023-01-10T08:33:32.144Z,99.90
2023-01-10T08:35:59.282Z,99.90
2023-01-10T08:38:26.424Z,99.90
2023-01-10T08:40:55.968Z,99.90
2023-01-10T08:43:23.122Z,99.90
2023-01-10T08:45:50.379Z,99.90
2023-01-10T08:48:17.905Z,99.90
2023-01-10T08:50:45.127Z,99.90
2023-01-10T08:53:13.850Z,99.90
2023-01-10T08:55:41.146Z,99.90
2023-01-10T08:58:09.218Z,99.90
2023-01-10T09:00:36.469Z,99.90
2023-01-10T09:03:05.792Z,99.90
2023-01-10T09:05:33.151Z,99.90
2023-01-10T09:08:01.421Z,99.90
2023-01-10T09:10:29.384Z,99.90
2023-01-10T09:12:59.854Z,99.90
2023-01-10T09:15:28.916Z,99.90
2023-01-10T09:17:57.237Z,99.90
2023-01-10T09:20:25.794Z,99.90
2023-01-10T09:22:53.279Z,99.90
2023-01-10T09:25:20.607Z,99.90
2023-01-10T09:27:47.840Z,99.90
2023-01-10T09:30:15.274Z,99.90
2023-01-10T09:32:42.509Z,95.90
2023-01-10T09:35:09.785Z,91.70
2023-01-10T09:37:37.998Z,83.40
2023-01-10T09:40:06.414Z,80.50
2023-01-10T09:42:52.168Z,78.70
2023-01-10T09:45:30.541Z,78.50
2023-01-10T09:48:09.263Z,77.50
2023-01-10T09:50:59.611Z,74.10
2023-01-10T09:53:29.378Z,72.60
2023-01-10T09:55:57.578Z,70.60
2023-01-10T09:58:27.669Z,72.30
2023-01-10T10:00:57.975Z,71.20
2023-01-10T10:03:41.269Z,63.40
2023-01-10T10:06:12.872Z,63.40
2023-01-10T10:08:41.130Z,64.80
2023-01-10T10:11:10.290Z,66.40
2023-01-10T10:13:45.033Z,68.00
2023-01-10T10:16:32.451Z,65.10
2023-01-10T10:19:09.696Z,63.70
2023-01-10T10:21:42.688Z,63.90
2023-01-10T10:24:27.961Z,70.20
2023-01-10T10:26:55.082Z,72.00
2023-01-10T10:29:35.682Z,72.70
2023-01-10T10:32:07.174Z,79.90
2023-01-10T10:34:43.985Z,82.50
2023-01-10T10:37:35.930Z,82.50
2023-01-10T10:40:03.142Z,82.10
2023-01-10T10:42:32.452Z,82.60
2023-01-10T10:45:02.191Z,83.50
2023-01-10T10:47:32.458Z,79.00
2023-01-10T10:50:09.792Z,78.20
2023-01-10T10:52:37.160Z,76.90
2023-01-10T10:55:05.930Z,76.00
2023-01-10T10:57:35.407Z,76.20
2023-01-10T11:00:04.150Z,77.30
2023-01-10T11:02:32.609Z,78.30
2023-01-10T11:05:02.879Z,79.50
2023-01-10T11:07:34.537Z,81.30
2023-01-10T11:10:22.149Z,76.70
2023-01-10T11:12:51.242Z,78.90
2023-01-10T11:15:37.059Z,80.60
2023-01-10T11:18:05.889Z,75.70
2023-01-10T11:20:33.813Z,78.30
2023-01-10T11:23:01.258Z,75.00
2023-01-10T11:25:28.559Z,70.30
2023-01-10T11:27:58.068Z,73.30
2023-01-10T11:30:26.830Z,70.20
2023-01-10T11:32:57.846Z,69.40
2023-01-10T11:35:26.913Z,73.10
2023-01-10T11:38:18.040Z,71.30
2023-01-10T11:41:02.466Z,71.10
2023-01-10T11:43:34.524Z,74.80
2023-01-10T11:46:02.721Z,74.20
2023-01-10T11:49:04.926Z,71.70
2023-01-10T11:51:37.454Z,70.90
2023-01-10T11:54:11.158Z,68.80
2023-01-10T11:56:40.069Z,67.80
2023-01-10T11:59:09.457Z,67.50
2023-01-10T12:01:39.906Z,65.70
2023-01-10T12:04:07.381Z,67.40
2023-01-10T12:06:34.715Z,67.60
2023-01-10T12:09:01.966Z,62.70
2023-01-10T12:11:32.701Z,66.30
2023-01-10T12:14:01.585Z,67.00
2023-01-10T12:16:30.189Z,65.50
2023-01-10T12:19:05.445Z,64.90
2023-01-10T12:21:41.184Z,64.70
2023-01-10T12:24:14.419Z,65.80
2023-01-10T12:26:41.719Z,63.00
2023-01-10T12:29:12.943Z,59.90
2023-01-10T12:31:41.162Z,64.50
2023-01-10T12:34:14.700Z,65.70
2023-01-10T12:36:41.875Z,64.70
2023-01-10T12:39:19.661Z,64.50
2023-01-10T12:42:11.400Z,62.00
2023-01-10T12:44:42.055Z,57.20
2023-01-10T12:47:28.191Z,62.00
2023-01-10T12:49:55.455Z,65.10
2023-01-10T12:52:45.440Z,66.10
2023-01-10T12:55:16.475Z,58.50
2023-01-10T12:57:51.622Z,57.80
2023-01-10T13:00:19.466Z,67.10
2023-01-10T13:02:47.915Z,59.40
2023-01-10T13:05:17.841Z,57.80
2023-01-10T13:07:45.920Z,58.50
2023-01-10T13:10:15.962Z,57.80
2023-01-10T13:12:45.598Z,65.00
2023-01-10T13:15:12.781Z,61.60
2023-01-10T13:17:45.306Z,62.30
2023-01-10T13:20:21.424Z,72.40
2023-01-10T13:22:56.264Z,70.80
2023-01-10T13:25:24.765Z,72.70
2023-01-10T13:27:55.624Z,74.80
2023-01-10T13:30:27.305Z,74.60
2023-01-10T13:33:05.198Z,72.70
2023-01-10T13:35:39.662Z,73.00
2023-01-10T13:38:15.213Z,70.70
2023-01-10T13:40:55.517Z,71.10
2023-01-10T13:43:59.325Z,72.20
2023-01-10T13:46:26.545Z,71.40
2023-01-10T13:48:54.587Z,71.00
2023-01-10T13:51:22.168Z,71.10
2023-01-10T13:53:51.828Z,71.00
2023-01-10T13:56:41.594Z,72.10
2023-01-10T13:59:42.784Z,72.50
2023-01-10T14:02:29.325Z,73.20
2023-01-10T14:04:57.968Z,74.00
2023-01-10T14:07:33.162Z,78.30
2023-01-10T14:10:04.815Z,80.10
2023-01-10T14:12:35.561Z,83.30
2023-01-10T14:15:05.964Z,85.80
2023-01-10T14:17:35.201Z,84.40
2023-01-10T14:20:07.848Z,84.80
2023-01-10T14:22:36.676Z,84.40
2023-01-10T14:25:22.509Z,84.40
2023-01-10T14:27:50.926Z,84.30
2023-01-10T14:30:20.871Z,85.10
2023-01-10T14:32:51.109Z,85.50
2023-01-10T14:35:20.696Z,86.70
2023-01-10T14:37:53.092Z,84.60
2023-01-10T14:40:34.513Z,82.40
2023-01-10T14:43:04.121Z,80.70
2023-01-10T14:45:35.077Z,81.50
2023-01-10T14:48:22.128Z,81.50
2023-01-10T14:50:49.284Z,82.70
2023-01-10T14:53:25.042Z,83.40
2023-01-10T14:55:52.245Z,78.90
2023-01-10T14:58:19.762Z,79.30
2023-01-10T15:00:47.125Z,80.00
2023-01-10T15:03:18.388Z,80.00
2023-01-10T15:05:47.518Z,81.10
2023-01-10T15:08:25.699Z,80.80
2023-01-10T15:11:01.981Z,81.00
2023-01-10T15:13:29.944Z,80.60
2023-01-10T15:15:57.738Z,82.40
2023-01-10T15:18:27.962Z,81.10
2023-01-10T15:20:55.834Z,80.90
2023-01-10T15:23:27.255Z,83.20
2023-01-10T15:25:56.170Z,81.70
2023-01-10T15:28:23.674Z,83.90
2023-01-10T15:30:50.893Z,85.30
2023-01-10T15:33:26.746Z,79.00
2023-01-10T15:35:53.934Z,81.90
2023-01-10T15:38:23.991Z,85.40
2023-01-10T15:41:01.932Z,86.60
2023-01-10T15:43:30.544Z,87.60
2023-01-10T15:45:58.622Z,89.70
2023-01-10T15:48:36.324Z,89.50
2023-01-10T15:51:22.407Z,89.30
2023-01-10T15:53:52.061Z,90.00
2023-01-10T15:56:25.639Z,90.50
2023-01-10T15:58:53.732Z,90.50
2023-01-10T16:01:21.146Z,90.70
2023-01-10T16:03:56.820Z,90.70
2023-01-10T16:06:25.284Z,90.50
2023-01-10T16:08:53.913Z,90.50
2023-01-10T16:11:42.344Z,90.60
2023-01-10T16:14:09.664Z,90.60
2023-01-10T16:16:37.113Z,89.40
2023-01-10T16:19:04.422Z,83.70
2023-01-10T16:21:34.668Z,78.20
2023-01-10T16:24:02.350Z,75.60
2023-01-10T16:26:29.583Z,74.60
2023-01-10T16:28:56.785Z,72.30
2023-01-10T16:31:24.041Z,70.40
2023-01-10T16:33:51.838Z,70.30
2023-01-10T16:36:20.906Z,71.60
2023-01-10T16:38:48.399Z,67.80
2023-01-10T16:41:34.563Z,65.60
2023-01-10T16:44:01.935Z,62.70
2023-01-10T16:46:29.277Z,60.40
2023-01-10T16:48:56.525Z,58.70
2023-01-10T16:51:25.281Z,58.00
2023-01-10T16:53:52.589Z,58.30
2023-01-10T16:56:23.952Z,59.20
2023-01-10T16:58:51.893Z,59.60
2023-01-10T17:01:21.505Z,60.10
2023-01-10T17:03:48.914Z,59.80
2023-01-10T17:06:16.174Z,59.50
2023-01-10T17:08:44.172Z,60.30
2023-01-10T17:11:18.889Z,60.40
2023-01-10T17:13:46.242Z,60.20
2023-01-10T17:16:13.583Z,60.30
2023-01-10T17:18:40.817Z,62.40
2023-01-10T17:21:14.544Z,64.80
2023-01-10T17:23:41.969Z,66.90
2023-01-10T17:26:10.464Z,69.60
2023-01-10T17:28:38.240Z,73.00
2023-01-10T17:31:05.473Z,71.70
2023-01-10T17:33:32.837Z,73.00
2023-01-10T17:36:00.500Z,69.90
2023-01-10T17:38:28.744Z,72.80
2023-01-10T17:40:58.259Z,71.50
2023-01-10T17:43:25.434Z,72.60
2023-01-10T17:45:52.754Z,70.30
2023-01-10T17:48:20.208Z,77.70
2023-01-10T17:50:48.217Z,73.50
2023-01-10T17:53:16.930Z,74.60
2023-01-10T17:55:45.031Z,70.60
2023-01-10T17:58:12.353Z,66.70
2023-01-10T18:00:39.912Z,66.10
2023-01-10T18:03:07.551Z,64.40
2023-01-10T18:05:35.400Z,65.30
2023-01-10T18:08:03.288Z,63.60
2023-01-10T18:10:30.549Z,63.90
2023-01-10T18:12:57.833Z,63.80
2023-01-10T18:15:25.825Z,75.70
2023-01-10T18:17:53.072Z,79.50
2023-01-10T18:20:20.405Z,71.30
2023-01-10T18:23:06.162Z,77.00
2023-01-10T18:25:33.393Z,72.00
2023-01-10T18:28:00.561Z,66.50
2023-01-10T18:30:27.728Z,65.90
2023-01-10T18:32:54.995Z,67.60
2023-01-10T18:35:22.498Z,64.40
2023-01-10T18:37:49.738Z,63.90
2023-01-10T18:40:17.050Z,65.00
2023-01-10T18:42:44.282Z,65.60
2023-01-10T18:45:11.461Z,72.20
2023-01-10T18:47:38.640Z,77.70
2023-01-10T18:50:06.054Z,81.10
2023-01-10T18:52:33.237Z,82.30
2023-01-10T18:55:02.282Z,77.70
2023-01-10T18:57:32.419Z,74.70
2023-01-10T18:59:59.707Z,81.90
2023-01-10T19:02:26.885Z,75.10
2023-01-10T19:04:54.067Z,78.70
2023-01-10T19:07:21.344Z,78.60
2023-01-10T19:09:48.551Z,75.40
2023-01-10T19:12:15.737Z,74.30
2023-01-10T19:14:42.926Z,72.30
2023-01-10T19:17:10.095Z,72.60
2023-01-10T19:19:37.305Z,73.60
2023-01-10T19:22:04.499Z,89.40
2023-01-10T19:24:35.566Z,85.80
2023-01-10T19:27:02.804Z,84.30
2023-01-10T19:29:33.738Z,88.80
2023-01-10T19:32:03.987Z,90.00
2023-01-10T19:34:31.358Z,87.40
2023-01-10T19:36:58.542Z,90.90
2023-01-10T19:39:25.755Z,91.90
2023-01-10T19:41:53.063Z,91.40
2023-01-10T19:44:20.394Z,92.10
2023-01-10T19:46:49.113Z,86.30
2023-01-10T19:49:17.827Z,90.80
2023-01-10T19:51:51.248Z,89.70
2023-01-10T19:54:18.552Z,79.80
2023-01-10T19:56:45.835Z,74.90
2023-01-10T19:59:17.737Z,76.00
2023-01-10T20:01:44.973Z,88.20
2023-01-10T20:04:12.226Z,91.40
2023-01-10T20:06:40.025Z,92.20
2023-01-10T20:09:08.128Z,92.80
2023-01-10T20:11:38.146Z,94.00
2023-01-10T20:14:06.124Z,93.00
2023-01-10T20:16:33.780Z,86.80
2023-01-10T20:19:00.944Z,81.30
2023-01-10T20:21:28.165Z,78.60
2023-01-10T20:23:55.417Z,77.40
2023-01-10T20:26:26.036Z,85.90
2023-01-10T20:28:53.442Z,80.40
2023-01-10T20:31:21.815Z,92.70
2023-01-10T20:33:49.440Z,90.80
2023-01-10T20:36:18.161Z,87.30
2023-01-10T20:38:45.422Z,81.60
2023-01-10T20:41:14.033Z,81.30
2023-01-10T20:43:41.598Z,84.40
2023-01-10T20:46:13.754Z,83.40
2023-01-10T20:48:41.748Z,84.30
2023-01-10T20:51:13.498Z,86.80
2023-01-10T20:53:40.639Z,88.30
2023-01-10T20:56:09.466Z,94.40
2023-01-10T20:58:36.711Z,94.60
2023-01-10T21:01:03.967Z,95.30
2023-01-10T21:03:31.208Z,95.20
2023-01-10T21:05:59.397Z,93.10
2023-01-10T21:08:27.156Z,89.50
2023-01-10T21:10:54.363Z,91.30
2023-01-10T21:13:21.772Z,91.60
2023-01-10T21:15:52.404Z,92.10
2023-01-10T21:18:19.648Z,92.40
2023-01-10T21:20:47.301Z,93.60
2023-01-10T21:23:14.571Z,92.60
2023-01-10T21:25:41.949Z,92.30
2023-01-10T21:28:09.883Z,91.50
2023-01-10T21:30:37.521Z,92.70
2023-01-10T21:33:05.536Z,92.70
2023-01-10T21:35:33.181Z,92.00
2023-01-10T21:38:00.784Z,94.70
2023-01-10T21:40:28.523Z,94.80
2023-01-10T21:42:55.787Z,95.80
2023-01-10T21:45:22.995Z,96.10
2023-01-10T21:47:50.556Z,97.80
2023-01-10T21:50:19.125Z,97.20
2023-01-10T21:52:47.281Z,94.10
2023-01-10T21:55:15.646Z,92.80
2023-01-10T21:57:42.845Z,98.70
2023-01-10T22:00:10.285Z,96.60
2023-01-10T22:02:41.177Z,97.00
2023-01-10T22:05:08.764Z,96.30
2023-01-10T22:07:35.952Z,97.70
2023-01-10T22:10:03.981Z,99.20
2023-01-10T22:12:31.171Z,97.10
2023-01-10T22:14:58.377Z,96.70
2023-01-10T22:17:25.764Z,95.50
2023-01-10T22:19:52.902Z,95.10
2023-01-10T22:22:20.188Z,99.90
2023-01-10T22:24:48.031Z,98.60
2023-01-10T22:27:15.954Z,97.40
2023-01-10T22:29:43.315Z,99.50
2023-01-10T22:32:10.549Z,99.90
2023-01-10T22:34:38.213Z,98.60
2023-01-10T22:37:05.409Z,97.60
2023-01-10T22:39:32.554Z,99.70
2023-01-10T22:41:59.769Z,97.20
2023-01-10T22:44:27.112Z,99.40
2023-01-10T22:46:55.145Z,99.80
2023-01-10T22:49:22.640Z,98.70
2023-01-10T22:51:50.049Z,96.70
2023-01-10T22:54:17.773Z,96.50
2023-01-10T22:56:45.901Z,97.30
2023-01-10T22:59:28.988Z,96.90
2023-01-10T23:01:56.164Z,98.30
2023-01-10T23:04:24.185Z,95.60
2023-01-10T23:06:52.120Z,96.20
2023-01-10T23:09:19.380Z,94.30
2023-01-10T23:11:46.540Z,93.60
2023-01-10T23:14:14.645Z,97.90
2023-01-10T23:16:41.840Z,94.00
2023-01-10T23:19:09.112Z,97.60
2023-01-10T23:21:36.328Z,96.00
2023-01-10T23:24:03.596Z,96.60
2023-01-10T23:26:30.788Z,96.40
2023-01-10T23:28:58.017Z,97.40
2023-01-10T23:31:29.534Z,97.10
2023-01-10T23:33:56.959Z,97.50
2023-01-10T23:36:24.306Z,98.70
2023-01-10T23:38:51.483Z,98.90
2023-01-10T23:41:21.140Z,98.30
2023-01-10T23:43:49.481Z,97.60
2023-01-10T23:46:17.319Z,99.50
2023-01-10T23:48:46.388Z,99.80
2023-01-10T23:51:13.920Z,99.90
2023-01-10T23:53:41.136Z,99.90
2023-01-10T23:56:12.640Z,99.90
2023-01-10T23:58:40.290Z,99.90
